»·PEaware :: N763BR KDAL-KLAX

N763BR :: KDAL-KLAX

FLIGHT INFORMATION

Flight Status: Arrived
Operator: Privately registered:
United States
More flights under this callsign
Pilot: John H. (610)
Aircraft: EMBRAER EMB-190/195
(E190)
More flights by this aircraft type
Origin: KDAL Dallas Love
United States
Destination: KLAX Los Angeles Intl
United States
More flights between these airports :: More routes between these airports
Route: +SNSET4 CIKAN EWM BXK PKE TNP SEAVU2
File this flight plan on PilotEdge
Remarks:
Altitude:
(Current/Filed)
36,000ft
Speed:
(Current/Filed)
450kts
Departed: 02-May-16 06:36 PM
Arrived: 02-May-16 09:27 PM
Distance/Time
Traveled:
1080nm/2:51
Distance/Time
To Go:
Arrived

Flight Plot

Page will automatically refresh every two minutes.


Map Options




Map Legend


Flown Route
Filed Route
Departure Airport
Arrival Airport
Navaid (VOR, NDB)
Fix

Horizontal Profiles

Position Reports

Time Latitude Longitude Heading Altitude Ground
Speed
02-May-16 18:22 32.844386 -96.852303 0 495ft 0kts
02-May-16 18:23 32.844386 -96.852303 0 495ft 0kts
02-May-16 18:24 32.844386 -96.852303 0 495ft 0kts
02-May-16 18:25 32.844386 -96.852303 0 495ft 0kts
02-May-16 18:26 32.844386 -96.852303 0 495ft 0kts
02-May-16 18:27 32.844386 -96.852303 0 495ft 0kts
02-May-16 18:28 32.844386 -96.852303 0 495ft 0kts
02-May-16 18:29 32.844386 -96.852303 0 495ft 0kts
02-May-16 18:30 32.844386 -96.852303 0 495ft 0kts
02-May-16 18:31 32.845064 -96.852286 4 495ft 12kts
02-May-16 18:32 32.846969 -96.848048 99 495ft 25kts
02-May-16 18:33 32.842919 -96.842010 136 495ft 36kts
02-May-16 18:34 32.842122 -96.839320 1 495ft 6kts
02-May-16 18:35 32.862733 -96.863862 316 1417ft 177kts
02-May-16 18:36 32.894823 -96.903866 316 4117ft 207kts
02-May-16 18:37 32.929598 -96.960267 266 6125ft 241kts
02-May-16 18:38 32.898841 -97.029108 222 7736ft 260kts
02-May-16 18:39 32.823608 -97.038473 185 8959ft 301kts
02-May-16 18:40 32.745935 -97.038404 185 10204ft 328kts
02-May-16 18:41 32.689553 -97.101968 253 12777ft 324kts
02-May-16 18:42 32.668666 -97.201541 259 15848ft 334kts
02-May-16 18:43 32.661558 -97.306562 271 18838ft 335kts
02-May-16 18:44 32.665744 -97.416223 272 21457ft 339kts
02-May-16 18:45 32.670182 -97.528134 271 23440ft 352kts
02-May-16 18:46 32.674751 -97.645506 271 25438ft 359kts
02-May-16 18:47 32.675564 -97.763200 265 27480ft 353kts
02-May-16 18:48 32.666885 -97.877014 264 29383ft 342kts
02-May-16 18:49 32.658166 -97.988162 264 30793ft 335kts
02-May-16 18:50 32.649363 -98.099008 264 31616ft 337kts
02-May-16 18:51 32.640708 -98.210390 264 32369ft 340kts
02-May-16 18:52 32.631484 -98.322929 264 32898ft 344kts
02-May-16 18:53 32.622236 -98.435931 264 33405ft 344kts
02-May-16 18:54 32.612919 -98.548600 264 33881ft 342kts
02-May-16 18:55 32.603540 -98.660746 264 34342ft 339kts
02-May-16 18:56 32.594215 -98.771104 264 34795ft 333kts
02-May-16 18:57 32.585013 -98.878874 264 35229ft 325kts
02-May-16 18:58 32.575955 -98.983913 264 35644ft 314kts
02-May-16 18:59 32.567190 -99.084575 264 36035ft 298kts
02-May-16 19:00 32.559129 -99.179258 263 36165ft 288kts
02-May-16 19:01 32.550931 -99.272319 263 36162ft 279kts
02-May-16 19:02 32.543697 -99.362024 265 36158ft 266kts
02-May-16 19:03 32.537824 -99.457395 265 34301ft 315kts
02-May-16 19:04 32.531404 -99.563796 265 34168ft 329kts
02-May-16 19:05 32.524640 -99.674273 265 34165ft 340kts
02-May-16 19:06 32.518797 -99.768445 265 34163ft 349kts
02-May-16 19:07 32.510266 -99.903933 265 34165ft 358kts
02-May-16 19:08 32.503976 -100.002370 265 34174ft 362kts
02-May-16 19:09 32.496303 -100.121760 265 34196ft 365kts
02-May-16 19:10 32.488626 -100.242237 265 34196ft 368kts
02-May-16 19:11 32.480391 -100.363647 265 34194ft 370kts
02-May-16 19:12 32.472269 -100.485069 265 34192ft 371kts
02-May-16 19:13 32.464071 -100.607075 265 34187ft 371kts
02-May-16 19:14 32.455790 -100.728588 265 34178ft 371kts
02-May-16 19:15 32.445614 -100.875653 265 34176ft 371kts
02-May-16 19:16 32.392469 -101.610092 266 29674ft 391kts
02-May-16 19:17 32.378373 -101.794922 266 30171ft 381kts
02-May-16 19:18 32.362773 -101.995014 266 30165ft 401kts
02-May-16 19:19 32.352258 -102.128725 266 30169ft 412kts
02-May-16 19:20 32.341573 -102.264173 265 30168ft 415kts
02-May-16 19:21 32.330476 -102.400432 265 30176ft 416kts
02-May-16 19:22 32.319367 -102.536037 264 30192ft 411kts
02-May-16 19:23 32.308135 -102.669266 265 30184ft 403kts
02-May-16 19:24 32.296964 -102.801095 265 30183ft 403kts
02-May-16 19:25 32.285661 -102.932848 265 30177ft 403kts
02-May-16 19:26 32.274193 -103.064906 265 30171ft 403kts
02-May-16 19:27 32.262891 -103.196520 264 30180ft 404kts
02-May-16 19:28 32.251173 -103.328660 264 30175ft 404kts
02-May-16 19:29 32.239297 -103.460583 264 30170ft 404kts
02-May-16 19:30 32.227265 -103.592666 264 30159ft 404kts
02-May-16 19:31 32.215106 -103.724611 264 30152ft 404kts
02-May-16 19:32 32.202792 -103.856697 264 30150ft 404kts
02-May-16 19:33 32.190424 -103.987883 264 30148ft 404kts
02-May-16 19:34 32.177826 -104.120504 264 30158ft 404kts
02-May-16 19:35 32.165318 -104.252669 264 30159ft 409kts
02-May-16 19:36 32.152192 -104.387436 264 30156ft 416kts
02-May-16 19:37 32.138827 -104.523132 265 30155ft 416kts
02-May-16 19:38 32.125453 -104.657295 265 30153ft 417kts
02-May-16 19:39 32.111608 -104.794705 265 30152ft 417kts
02-May-16 19:40 32.097771 -104.930640 264 30150ft 415kts
02-May-16 19:41 32.084013 -105.064357 264 30148ft 410kts
02-May-16 19:42 32.070553 -105.196141 263 30157ft 409kts
02-May-16 19:43 32.056391 -105.331183 263 30147ft 410kts
02-May-16 19:44 32.042245 -105.464385 263 30139ft 411kts
02-May-16 19:45 32.027797 -105.599049 263 30133ft 411kts
02-May-16 19:46 32.013301 -105.732797 263 30127ft 411kts
02-May-16 19:47 31.998719 -105.866016 263 30123ft 411kts
02-May-16 19:48 31.983871 -106.000334 263 30121ft 412kts
02-May-16 19:49 31.969090 -106.133827 263 30131ft 412kts
02-May-16 19:50 31.956264 -106.263928 274 30082ft 410kts
02-May-16 19:51 31.983580 -106.394362 284 30129ft 414kts
02-May-16 19:52 32.017032 -106.525082 284 30128ft 414kts
02-May-16 19:53 32.049984 -106.653665 284 30137ft 413kts
02-May-16 19:54 32.083205 -106.783881 284 30155ft 413kts
02-May-16 19:55 32.115825 -106.912352 284 30159ft 412kts
02-May-16 19:56 32.148797 -107.042817 284 30157ft 412kts
02-May-16 19:57 32.181741 -107.172800 284 30169ft 412kts
02-May-16 19:58 32.214104 -107.301828 284 30166ft 412kts
02-May-16 19:59 32.241282 -107.410875 284 30153ft 413kts
02-May-16 20:00 32.272587 -107.537034 284 30137ft 414kts
02-May-16 20:01 32.305976 -107.672255 284 30135ft 414kts
02-May-16 20:02 32.337258 -107.799567 284 30133ft 414kts
02-May-16 20:03 32.370207 -107.934320 284 30143ft 414kts
02-May-16 20:04 32.402017 -108.065073 284 30166ft 413kts
02-May-16 20:05 32.433841 -108.195375 283 30200ft 412kts
02-May-16 20:06 32.465084 -108.324923 283 30178ft 412kts
02-May-16 20:07 32.496714 -108.456881 283 30132ft 413kts
02-May-16 20:08 32.528000 -108.587971 283 30125ft 419kts
02-May-16 20:09 32.559828 -108.722149 282 30109ft 428kts
02-May-16 20:10 32.590658 -108.852829 282 30104ft 428kts
02-May-16 20:11 32.624013 -108.994895 282 30098ft 428kts
02-May-16 20:12 32.652577 -109.117053 282 30067ft 431kts
02-May-16 20:13 32.687746 -109.267169 282 30038ft 432kts
02-May-16 20:14 32.719564 -109.404867 282 30037ft 432kts
02-May-16 20:15 32.750696 -109.540353 282 30035ft 432kts
02-May-16 20:16 32.782720 -109.680503 282 30036ft 436kts
02-May-16 20:17 32.813498 -109.815920 282 30032ft 438kts
02-May-16 20:18 32.845772 -109.958724 282 30031ft 438kts
02-May-16 20:19 32.875899 -110.092774 282 30030ft 438kts
02-May-16 20:20 32.908583 -110.237633 281 30039ft 438kts
02-May-16 20:21 32.940188 -110.379829 281 30037ft 438kts
02-May-16 20:22 32.970161 -110.515500 281 30015ft 436kts
02-May-16 20:23 33.001830 -110.659689 281 29981ft 434kts
02-May-16 20:24 33.032065 -110.798154 281 29978ft 435kts
02-May-16 20:25 33.060995 -110.931491 282 29976ft 435kts
02-May-16 20:26 33.092800 -111.078882 283 29970ft 439kts
02-May-16 20:27 33.123361 -111.219773 282 29975ft 440kts
02-May-16 20:28 33.153538 -111.361139 282 29974ft 440kts
02-May-16 20:29 33.183510 -111.502507 282 29972ft 440kts
02-May-16 20:30 33.211780 -111.636636 282 29970ft 440kts
02-May-16 20:31 33.243235 -111.786786 282 29963ft 441kts
02-May-16 20:32 33.272786 -111.928739 282 29954ft 441kts
02-May-16 20:33 33.301824 -112.069085 282 29942ft 441kts
02-May-16 20:34 33.331379 -112.211374 282 29960ft 441kts
02-May-16 20:35 33.360440 -112.353443 282 29974ft 441kts
02-May-16 20:36 33.389434 -112.496207 282 29978ft 439kts
02-May-16 20:37 33.417347 -112.634553 282 30294ft 428kts
02-May-16 20:38 33.445055 -112.772703 282 31273ft 424kts
02-May-16 20:39 33.482603 -112.905276 291 31992ft 424kts
02-May-16 20:40 33.528999 -113.035871 291 32480ft 422kts
02-May-16 20:41 33.574947 -113.164146 291 32872ft 419kts
02-May-16 20:42 33.620357 -113.291841 291 33295ft 412kts
02-May-16 20:43 33.664835 -113.417657 291 33442ft 415kts
02-May-16 20:44 33.709888 -113.545612 291 33492ft 418kts
02-May-16 20:45 33.752916 -113.668265 291 33964ft 415kts
02-May-16 20:46 33.790937 -113.777077 291 33950ft 419kts
02-May-16 20:47 33.843862 -113.929136 291 33959ft 420kts
02-May-16 20:48 33.878822 -114.029983 291 33963ft 420kts
02-May-16 20:49 33.927185 -114.169237 291 33962ft 421kts
02-May-16 20:50 33.971085 -114.296663 291 33957ft 422kts
02-May-16 20:51 34.017403 -114.431892 291 33966ft 421kts
02-May-16 20:52 34.061082 -114.559959 291 33967ft 421kts
02-May-16 20:53 34.101075 -114.694742 273 33968ft 414kts
02-May-16 20:54 34.103867 -114.831418 272 33948ft 421kts
02-May-16 20:55 34.105623 -114.974750 272 33947ft 422kts
02-May-16 20:56 34.107173 -115.115593 271 33951ft 422kts
02-May-16 20:57 34.108858 -115.258739 271 33979ft 422kts
02-May-16 20:58 34.110074 -115.400035 271 34064ft 421kts
02-May-16 20:59 34.111121 -115.541216 271 34100ft 421kts
02-May-16 21:00 34.112006 -115.682382 271 34098ft 421kts
02-May-16 21:01 34.104704 -115.819632 262 34096ft 421kts
02-May-16 21:02 34.083899 -115.961161 262 34094ft 424kts
02-May-16 21:03 34.062537 -116.104637 262 31917ft 467kts
02-May-16 21:04 34.039012 -116.263340 262 28993ft 473kts
02-May-16 21:05 34.016483 -116.412078 262 26161ft 459kts
02-May-16 21:06 33.999116 -116.564585 267 23713ft 443kts
02-May-16 21:07 33.987326 -116.710883 266 22122ft 437kts
02-May-16 21:08 33.975804 -116.851462 266 20458ft 427kts
02-May-16 21:09 33.964415 -116.989375 266 18591ft 417kts
02-May-16 21:10 33.952642 -117.130677 265 16911ft 407kts
02-May-16 21:11 33.941978 -117.257795 264 15230ft 394kts
02-May-16 21:12 33.936792 -117.380783 289 13445ft 354kts
02-May-16 21:13 33.970482 -117.482538 294 12066ft 344kts
02-May-16 21:14 34.003022 -117.574524 294 10534ft 335kts
02-May-16 21:15 34.008333 -117.660107 266 9418ft 331kts
02-May-16 21:16 34.000334 -117.748747 264 9023ft 327kts
02-May-16 21:17 33.991622 -117.838205 264 8248ft 324kts
02-May-16 21:18 33.982871 -117.927579 264 7046ft 307kts
02-May-16 21:19 33.976087 -117.996279 264 6036ft 284kts
02-May-16 21:20 33.969181 -118.066104 264 5047ft 271kts
02-May-16 21:21 33.962805 -118.130641 264 4196ft 269kts
02-May-16 21:22 33.956725 -118.191911 263 3231ft 265kts
02-May-16 21:23 33.951172 -118.246763 262 2289ft 237kts
02-May-16 21:24 33.945755 -118.302788 262 1498ft 207kts
02-May-16 21:25 33.939309 -118.366395 261 431ft 184kts
02-May-16 21:26 33.936289 -118.398766 285 134ft 25kts
02-May-16 21:27 33.936486 -118.402119 262 134ft 15kts
02-May-16 21:28 33.937990 -118.405350 12 134ft 9kts
02-May-16 21:29 33.940021 -118.405996 307 134ft 0kts

Navigation Log

Ident Type
1. KDAL Airport
2. CIKAN Fix
3. EWM Navaid
4. BXK Navaid
5. PKE Navaid
6. TNP Navaid
7. PAUMA Fix
8. ARRVD Fix
9. KONZL Fix
10. ENGLI Fix
11. PECOX Fix
12. CATAW Fix
13. SEAVU Fix
14. KLAX Airport